Terminal Aerodrome Forecast
Issued by NWS Albany, NY

Home | Current Version | Previous Version | Text Only | Print | Product List | Glossary On
Versions: 1 2 3 4 5 6 7 8 9 10 11 12 13 14 15 16 17 18 19 20 21 22 23
000
FTUS41 KALY 202100 AAA
TAFALB
TAF AMD
KALB 202100Z 2021/2118 27012G19KT P6SM VCSH BKN040
     FM202200 25006KT P6SM VCSH BKN040
     FM210300 19006KT P6SM SCT050
     FM211500 18014G22KT P6SM SKC=

USA.gov is the U.S. government's official web portal to all federal, state and local government web resources and services.